sensor_id;sensor_type;location;lat;lon;timestamp;temperature;humidity
23550;DHT22;11953;49.010;8.608;2023-07-13T00:00:08;26.00;99.80
23550;DHT22;11953;49.010;8.608;2023-07-13T00:02:59;25.90;99.30
23550;DHT22;11953;49.010;8.608;2023-07-13T00:05:46;25.80;98.90
23550;DHT22;11953;49.010;8.608;2023-07-13T00:08:35;25.70;98.80
23550;DHT22;11953;49.010;8.608;2023-07-13T00:11:23;25.60;98.60
23550;DHT22;11953;49.010;8.608;2023-07-13T00:14:10;25.60;98.50
23550;DHT22;11953;49.010;8.608;2023-07-13T00:16:57;25.50;98.50
23550;DHT22;11953;49.010;8.608;2023-07-13T00:19:46;25.50;98.50
23550;DHT22;11953;49.010;8.608;2023-07-13T00:22:33;25.40;98.30
23550;DHT22;11953;49.010;8.608;2023-07-13T00:25:22;25.40;98.10
23550;DHT22;11953;49.010;8.608;2023-07-13T00:28:10;25.30;98.00
23550;DHT22;11953;49.010;8.608;2023-07-13T00:30:57;25.30;98.10
23550;DHT22;11953;49.010;8.608;2023-07-13T00:33:43;25.30;98.20
23550;DHT22;11953;49.010;8.608;2023-07-13T00:36:31;25.20;97.90
23550;DHT22;11953;49.010;8.608;2023-07-13T00:39:18;25.20;97.70
23550;DHT22;11953;49.010;8.608;2023-07-13T00:42:07;25.10;97.50
23550;DHT22;11953;49.010;8.608;2023-07-13T00:45:02;25.10;97.50
23550;DHT22;11953;49.010;8.608;2023-07-13T00:47:49;25.00;97.60
23550;DHT22;11953;49.010;8.608;2023-07-13T00:50:36;25.00;97.60
23550;DHT22;11953;49.010;8.608;2023-07-13T00:53:25;25.00;97.50
23550;DHT22;11953;49.010;8.608;2023-07-13T00:56:13;24.90;97.40
23550;DHT22;11953;49.010;8.608;2023-07-13T00:59:02;24.90;97.40
23550;DHT22;11953;49.010;8.608;2023-07-13T01:01:49;24.90;97.30
23550;DHT22;11953;49.010;8.608;2023-07-13T01:04:36;24.80;97.40
23550;DHT22;11953;49.010;8.608;2023-07-13T01:07:24;24.80;97.20
23550;DHT22;11953;49.010;8.608;2023-07-13T01:10:14;24.80;97.10
23550;DHT22;11953;49.010;8.608;2023-07-13T01:13:01;24.70;97.10
23550;DHT22;11953;49.010;8.608;2023-07-13T01:15:51;24.70;97.30
23550;DHT22;11953;49.010;8.608;2023-07-13T01:18:38;24.60;97.60
23550;DHT22;11953;49.010;8.608;2023-07-13T01:21:26;24.60;97.70
23550;DHT22;11953;49.010;8.608;2023-07-13T01:24:14;24.60;97.80
23550;DHT22;11953;49.010;8.608;2023-07-13T01:27:00;24.60;97.90
23550;DHT22;11953;49.010;8.608;2023-07-13T01:29:47;24.60;98.00
23550;DHT22;11953;49.010;8.608;2023-07-13T01:32:35;24.50;97.90
23550;DHT22;11953;49.010;8.608;2023-07-13T01:35:22;24.50;97.70
23550;DHT22;11953;49.010;8.608;2023-07-13T01:38:13;24.50;97.80
23550;DHT22;11953;49.010;8.608;2023-07-13T01:41:00;24.40;98.00
23550;DHT22;11953;49.010;8.608;2023-07-13T01:43:47;24.40;98.20
23550;DHT22;11953;49.010;8.608;2023-07-13T01:46:35;24.40;98.20
23550;DHT22;11953;49.010;8.608;2023-07-13T01:49:22;24.30;98.20
23550;DHT22;11953;49.010;8.608;2023-07-13T01:52:09;24.30;98.20
23550;DHT22;11953;49.010;8.608;2023-07-13T01:54:57;24.30;98.40
23550;DHT22;11953;49.010;8.608;2023-07-13T01:57:43;24.30;98.40
23550;DHT22;11953;49.010;8.608;2023-07-13T02:00:31;24.20;98.50
23550;DHT22;11953;49.010;8.608;2023-07-13T02:03:20;24.20;98.50
23550;DHT22;11953;49.010;8.608;2023-07-13T02:06:07;24.10;98.30
23550;DHT22;11953;49.010;8.608;2023-07-13T02:08:54;24.10;98.10
23550;DHT22;11953;49.010;8.608;2023-07-13T02:11:42;24.10;98.20
23550;DHT22;11953;49.010;8.608;2023-07-13T02:14:29;24.00;98.40
23550;DHT22;11953;49.010;8.608;2023-07-13T02:17:16;24.00;98.30
23550;DHT22;11953;49.010;8.608;2023-07-13T02:20:03;24.00;98.20
23550;DHT22;11953;49.010;8.608;2023-07-13T02:22:50;23.90;98.30
23550;DHT22;11953;49.010;8.608;2023-07-13T02:25:39;23.90;98.60
23550;DHT22;11953;49.010;8.608;2023-07-13T02:28:28;23.90;98.30
23550;DHT22;11953;49.010;8.608;2023-07-13T02:31:16;23.80;98.40
23550;DHT22;11953;49.010;8.608;2023-07-13T02:34:04;23.90;98.30
23550;DHT22;11953;49.010;8.608;2023-07-13T02:36:50;23.80;98.40
23550;DHT22;11953;49.010;8.608;2023-07-13T02:39:37;23.80;98.60
23550;DHT22;11953;49.010;8.608;2023-07-13T02:42:24;23.80;98.60
23550;DHT22;11953;49.010;8.608;2023-07-13T02:45:12;23.80;98.80
23550;DHT22;11953;49.010;8.608;2023-07-13T02:47:59;23.70;98.80
23550;DHT22;11953;49.010;8.608;2023-07-13T02:50:46;23.70;98.80
23550;DHT22;11953;49.010;8.608;2023-07-13T02:53:33;23.60;98.90
23550;DHT22;11953;49.010;8.608;2023-07-13T02:56:24;23.60;98.90
23550;DHT22;11953;49.010;8.608;2023-07-13T02:59:11;23.60;98.90
23550;DHT22;11953;49.010;8.608;2023-07-13T03:02:00;23.60;98.90
23550;DHT22;11953;49.010;8.608;2023-07-13T03:04:48;23.50;98.90
23550;DHT22;11953;49.010;8.608;2023-07-13T03:07:35;23.50;98.90
23550;DHT22;11953;49.010;8.608;2023-07-13T03:10:22;23.50;98.90
23550;DHT22;11953;49.010;8.608;2023-07-13T03:13:10;23.50;99.00
23550;DHT22;11953;49.010;8.608;2023-07-13T03:15:56;23.50;98.90
23550;DHT22;11953;49.010;8.608;2023-07-13T03:18:46;23.40;98.90
23550;DHT22;11953;49.010;8.608;2023-07-13T03:21:33;23.40;99.00
23550;DHT22;11953;49.010;8.608;2023-07-13T03:24:21;23.40;99.00
23550;DHT22;11953;49.010;8.608;2023-07-13T03:27:12;23.30;98.90
23550;DHT22;11953;49.010;8.608;2023-07-13T03:30:01;23.30;98.90
23550;DHT22;11953;49.010;8.608;2023-07-13T03:32:48;23.30;99.00
23550;DHT22;11953;49.010;8.608;2023-07-13T03:35:40;23.30;99.00
23550;DHT22;11953;49.010;8.608;2023-07-13T03:38:27;23.20;99.20
23550;DHT22;11953;49.010;8.608;2023-07-13T03:41:14;23.30;99.90
23550;DHT22;11953;49.010;8.608;2023-07-13T03:44:03;23.20;99.90
23550;DHT22;11953;49.010;8.608;2023-07-13T03:46:50;23.20;99.90
23550;DHT22;11953;49.010;8.608;2023-07-13T03:49:37;23.20;99.40
23550;DHT22;11953;49.010;8.608;2023-07-13T03:52:25;23.10;99.30
23550;DHT22;11953;49.010;8.608;2023-07-13T03:55:12;23.10;99.30
23550;DHT22;11953;49.010;8.608;2023-07-13T03:58:23;23.00;99.30
23550;DHT22;11953;49.010;8.608;2023-07-13T04:01:10;23.00;99.30
23550;DHT22;11953;49.010;8.608;2023-07-13T04:03:58;22.90;99.40
23550;DHT22;11953;49.010;8.608;2023-07-13T04:06:49;23.00;99.50
23550;DHT22;11953;49.010;8.608;2023-07-13T04:09:39;22.90;99.80
23550;DHT22;11953;49.010;8.608;2023-07-13T04:12:28;22.80;99.50
23550;DHT22;11953;49.010;8.608;2023-07-13T04:15:15;22.80;99.70
23550;DHT22;11953;49.010;8.608;2023-07-13T04:18:02;22.80;99.70
23550;DHT22;11953;49.010;8.608;2023-07-13T04:20:50;22.80;99.90
23550;DHT22;11953;49.010;8.608;2023-07-13T04:23:37;22.90;99.90
23550;DHT22;11953;49.010;8.608;2023-07-13T04:26:26;22.90;99.80
23550;DHT22;11953;49.010;8.608;2023-07-13T04:29:13;22.90;99.70
23550;DHT22;11953;49.010;8.608;2023-07-13T04:32:00;22.90;99.90
23550;DHT22;11953;49.010;8.608;2023-07-13T04:34:47;22.90;99.70
23550;DHT22;11953;49.010;8.608;2023-07-13T04:37:38;22.80;99.90
23550;DHT22;11953;49.010;8.608;2023-07-13T04:40:26;22.80;99.90
23550;DHT22;11953;49.010;8.608;2023-07-13T04:43:15;22.80;99.90
23550;DHT22;11953;49.010;8.608;2023-07-13T04:46:06;22.80;99.90
23550;DHT22;11953;49.010;8.608;2023-07-13T04:48:53;22.80;99.90
23550;DHT22;11953;49.010;8.608;2023-07-13T04:51:40;22.70;99.90
23550;DHT22;11953;49.010;8.608;2023-07-13T04:54:27;22.80;99.90
23550;DHT22;11953;49.010;8.608;2023-07-13T04:57:14;22.70;99.90
23550;DHT22;11953;49.010;8.608;2023-07-13T05:00:03;22.80;99.90
23550;DHT22;11953;49.010;8.608;2023-07-13T05:02:53;22.70;99.90
23550;DHT22;11953;49.010;8.608;2023-07-13T05:05:40;22.80;99.90
23550;DHT22;11953;49.010;8.608;2023-07-13T05:08:26;22.80;99.90
23550;DHT22;11953;49.010;8.608;2023-07-13T05:11:13;22.70;99.90
23550;DHT22;11953;49.010;8.608;2023-07-13T05:14:00;22.80;99.90
23550;DHT22;11953;49.010;8.608;2023-07-13T05:16:48;22.80;99.90
23550;DHT22;11953;49.010;8.608;2023-07-13T05:19:35;22.80;99.90
23550;DHT22;11953;49.010;8.608;2023-07-13T05:22:22;22.80;99.90
23550;DHT22;11953;49.010;8.608;2023-07-13T05:25:09;22.80;99.90
23550;DHT22;11953;49.010;8.608;2023-07-13T05:27:56;22.80;99.90
23550;DHT22;11953;49.010;8.608;2023-07-13T05:30:45;22.90;99.90
23550;DHT22;11953;49.010;8.608;2023-07-13T05:33:34;22.90;99.90
23550;DHT22;11953;49.010;8.608;2023-07-13T05:36:21;22.90;99.90
23550;DHT22;11953;49.010;8.608;2023-07-13T05:39:08;22.80;99.90
23550;DHT22;11953;49.010;8.608;2023-07-13T05:41:55;22.80;99.90
23550;DHT22;11953;49.010;8.608;2023-07-13T05:44:42;22.80;99.90
23550;DHT22;11953;49.010;8.608;2023-07-13T05:47:28;22.80;99.90
23550;DHT22;11953;49.010;8.608;2023-07-13T05:50:16;22.80;99.90
23550;DHT22;11953;49.010;8.608;2023-07-13T05:53:03;22.80;99.90
23550;DHT22;11953;49.010;8.608;2023-07-13T05:55:54;22.80;99.90
23550;DHT22;11953;49.010;8.608;2023-07-13T05:58:41;22.80;99.90
23550;DHT22;11953;49.010;8.608;2023-07-13T06:01:29;22.80;99.80
23550;DHT22;11953;49.010;8.608;2023-07-13T06:04:16;22.70;99.60
23550;DHT22;11953;49.010;8.608;2023-07-13T06:07:04;22.80;99.50
23550;DHT22;11953;49.010;8.608;2023-07-13T06:09:51;22.80;99.60
23550;DHT22;11953;49.010;8.608;2023-07-13T06:12:38;22.90;99.90
23550;DHT22;11953;49.010;8.608;2023-07-13T06:15:25;22.90;99.90
23550;DHT22;11953;49.010;8.608;2023-07-13T06:18:12;22.90;99.90
23550;DHT22;11953;49.010;8.608;2023-07-13T06:20:59;23.00;99.90
23550;DHT22;11953;49.010;8.608;2023-07-13T06:23:48;23.00;99.90
23550;DHT22;11953;49.010;8.608;2023-07-13T06:26:35;22.90;99.90
23550;DHT22;11953;49.010;8.608;2023-07-13T06:29:21;22.90;99.90
23550;DHT22;11953;49.010;8.608;2023-07-13T06:32:08;23.00;99.90
23550;DHT22;11953;49.010;8.608;2023-07-13T06:34:55;23.00;99.80
23550;DHT22;11953;49.010;8.608;2023-07-13T06:37:42;23.00;99.70
23550;DHT22;11953;49.010;8.608;2023-07-13T06:40:30;23.00;99.60
23550;DHT22;11953;49.010;8.608;2023-07-13T06:43:16;22.90;99.50
23550;DHT22;11953;49.010;8.608;2023-07-13T06:46:05;23.00;99.20
23550;DHT22;11953;49.010;8.608;2023-07-13T06:48:51;22.90;98.90
23550;DHT22;11953;49.010;8.608;2023-07-13T06:51:38;22.90;98.50
23550;DHT22;11953;49.010;8.608;2023-07-13T06:54:25;22.90;98.40
23550;DHT22;11953;49.010;8.608;2023-07-13T06:57:13;22.90;98.20
23550;DHT22;11953;49.010;8.608;2023-07-13T07:00:00;23.00;98.20
23550;DHT22;11953;49.010;8.608;2023-07-13T07:02:47;22.90;98.00
23550;DHT22;11953;49.010;8.608;2023-07-13T07:05:34;22.90;97.70
23550;DHT22;11953;49.010;8.608;2023-07-13T07:08:21;22.90;97.30
23550;DHT22;11953;49.010;8.608;2023-07-13T07:11:09;22.90;97.20
23550;DHT22;11953;49.010;8.608;2023-07-13T07:13:58;22.90;96.90
23550;DHT22;11953;49.010;8.608;2023-07-13T07:16:45;22.90;96.70
23550;DHT22;11953;49.010;8.608;2023-07-13T07:19:32;22.90;96.80
23550;DHT22;11953;49.010;8.608;2023-07-13T07:22:20;22.90;96.40
23550;DHT22;11953;49.010;8.608;2023-07-13T07:25:07;22.90;96.20
23550;DHT22;11953;49.010;8.608;2023-07-13T07:27:54;23.00;96.40
23550;DHT22;11953;49.010;8.608;2023-07-13T07:30:45;23.00;96.60
23550;DHT22;11953;49.010;8.608;2023-07-13T07:33:34;23.00;96.90
23550;DHT22;11953;49.010;8.608;2023-07-13T07:36:21;23.10;98.10
23550;DHT22;11953;49.010;8.608;2023-07-13T07:39:11;23.20;98.30
23550;DHT22;11953;49.010;8.608;2023-07-13T07:41:58;23.30;98.40
23550;DHT22;11953;49.010;8.608;2023-07-13T07:44:45;23.40;98.30
23550;DHT22;11953;49.010;8.608;2023-07-13T07:47:33;23.40;98.10
23550;DHT22;11953;49.010;8.608;2023-07-13T07:50:20;23.50;98.10
23550;DHT22;11953;49.010;8.608;2023-07-13T07:53:07;23.50;98.00
23550;DHT22;11953;49.010;8.608;2023-07-13T07:55:55;23.50;97.90
23550;DHT22;11953;49.010;8.608;2023-07-13T07:59:02;23.50;97.80
23550;DHT22;11953;49.010;8.608;2023-07-13T08:01:51;23.60;97.80
23550;DHT22;11953;49.010;8.608;2023-07-13T08:04:42;23.60;97.60
23550;DHT22;11953;49.010;8.608;2023-07-13T08:07:32;23.60;97.60
23550;DHT22;11953;49.010;8.608;2023-07-13T08:10:19;23.60;97.30
23550;DHT22;11953;49.010;8.608;2023-07-13T08:13:06;23.60;97.20
23550;DHT22;11953;49.010;8.608;2023-07-13T08:15:56;23.60;97.30
23550;DHT22;11953;49.010;8.608;2023-07-13T08:18:44;23.60;97.30
23550;DHT22;11953;49.010;8.608;2023-07-13T08:21:33;23.60;97.00
23550;DHT22;11953;49.010;8.608;2023-07-13T08:24:21;23.60;96.80
23550;DHT22;11953;49.010;8.608;2023-07-13T08:27:08;23.60;96.70
23550;DHT22;11953;49.010;8.608;2023-07-13T08:29:57;23.60;96.40
23550;DHT22;11953;49.010;8.608;2023-07-13T08:32:43;23.60;96.20
23550;DHT22;11953;49.010;8.608;2023-07-13T08:35:31;23.60;96.00
23550;DHT22;11953;49.010;8.608;2023-07-13T08:38:18;23.60;96.00
23550;DHT22;11953;49.010;8.608;2023-07-13T08:41:12;23.60;95.70
23550;DHT22;11953;49.010;8.608;2023-07-13T08:43:59;23.60;95.70
23550;DHT22;11953;49.010;8.608;2023-07-13T08:46:47;23.60;95.70
23550;DHT22;11953;49.010;8.608;2023-07-13T08:49:36;23.60;95.60
23550;DHT22;11953;49.010;8.608;2023-07-13T08:52:31;23.60;95.40
23550;DHT22;11953;49.010;8.608;2023-07-13T08:55:24;23.60;94.90
23550;DHT22;11953;49.010;8.608;2023-07-13T08:58:15;23.60;94.70
23550;DHT22;11953;49.010;8.608;2023-07-13T09:01:12;23.60;94.60
23550;DHT22;11953;49.010;8.608;2023-07-13T09:04:08;23.60;94.60
23550;DHT22;11953;49.010;8.608;2023-07-13T09:07:01;23.60;94.70
23550;DHT22;11953;49.010;8.608;2023-07-13T09:10:04;23.70;94.80
23550;DHT22;11953;49.010;8.608;2023-07-13T09:13:04;23.60;94.30
23550;DHT22;11953;49.010;8.608;2023-07-13T09:15:54;23.70;94.40
23550;DHT22;11953;49.010;8.608;2023-07-13T09:18:45;23.80;94.30
23550;DHT22;11953;49.010;8.608;2023-07-13T09:21:37;23.80;94.30
23550;DHT22;11953;49.010;8.608;2023-07-13T09:24:34;23.90;94.30
23550;DHT22;11953;49.010;8.608;2023-07-13T09:27:27;23.90;93.90
23550;DHT22;11953;49.010;8.608;2023-07-13T09:30:27;23.90;94.00
